Time;durP1;ratioP1;P1;durP2;ratioP2;P2;SDS_P1;SDS_P2;PMS_P1;PMS_P2;Temp;Humidity;BMP_temperature;BMP_pressure;BME280_temperature;BME280_humidity;BME280_pressure;Samples;Min_cycle;Max_cycle;Signal;HPM_P1;HPM_P2
2022/08/16 00:01:28;;;;;;;11.10;4.60;;;;;;;;;;4872827;29;20057;-72
2022/08/16 00:04:08;;;;;;;7.78;3.80;;;;;;;;;;4872896;29;20056;-71
2022/08/16 00:06:40;;;;;;;8.63;4.22;;;;;;;;;;4871921;29;20068;-71
2022/08/16 00:09:11;;;;;;;9.70;4.22;;;;;;;;;;4872881;29;20049;-72
2022/08/16 00:11:43;;;;;;;7.68;4.82;;;;;;;;;;4872606;29;20497;-73
2022/08/16 00:14:17;;;;;;;9.13;4.75;;;;;;;;;;4876778;29;20053;-72
2022/08/16 00:16:48;;;;;;;9.05;4.40;;;;;;;;;;4876105;29;20049;-72
2022/08/16 00:19:39;;;;;;;8.85;4.55;;;;;;;;;;4876053;29;20080;-72
2022/08/16 00:22:10;;;;;;;7.18;4.20;;;;;;;;;;4877037;29;20060;-72
2022/08/16 00:24:44;;;;;;;5.97;3.88;;;;;;;;;;4877251;29;20428;-72
2022/08/16 00:27:19;;;;;;;6.75;3.63;;;;;;;;;;4877012;29;20060;-72
2022/08/16 00:29:50;;;;;;;5.93;3.72;;;;;;;;;;4876416;29;20048;-72
2022/08/16 00:32:43;;;;;;;9.68;4.63;;;;;;;;;;4876309;29;20049;-72
2022/08/16 00:35:18;;;;;;;7.13;4.47;;;;;;;;;;4875528;29;20425;-72
2022/08/16 00:37:49;;;;;;;9.60;4.88;;;;;;;;;;4875133;29;20057;-74
2022/08/16 00:40:36;;;;;;;5.95;3.90;;;;;;;;;;4874999;29;20057;-72
2022/08/16 00:43:26;;;;;;;7.85;4.25;;;;;;;;;;4876730;29;20049;-72
2022/08/16 00:46:17;;;;;;;9.45;4.25;;;;;;;;;;4875054;29;20121;-72
2022/08/16 00:49:07;;;;;;;8.68;4.13;;;;;;;;;;4876999;29;20139;-74
2022/08/16 00:51:51;;;;;;;6.68;3.70;;;;;;;;;;4868445;29;20062;-74
2022/08/16 00:54:27;;;;;;;7.85;4.20;;;;;;;;;;4867009;29;20053;-72
2022/08/16 00:57:02;;;;;;;10.95;4.30;;;;;;;;;;4866203;29;20052;-72
2022/08/16 00:59:34;;;;;;;8.13;3.97;;;;;;;;;;4862080;29;20055;-73
2022/08/16 01:02:18;;;;;;;8.68;3.72;;;;;;;;;;4864638;29;20419;-73
2022/08/16 01:05:01;;;;;;;8.45;4.60;;;;;;;;;;4865329;29;20430;-72
2022/08/16 01:07:42;;;;;;;7.43;4.65;;;;;;;;;;4863924;29;20053;-72
2022/08/16 01:10:26;;;;;;;9.10;4.28;;;;;;;;;;4865372;29;20417;-72
2022/08/16 01:13:10;;;;;;;10.02;5.22;;;;;;;;;;4863262;29;20048;-73
2022/08/16 01:15:48;;;;;;;7.72;4.07;;;;;;;;;;4865265;29;20052;-73
2022/08/16 01:18:24;;;;;;;9.07;5.00;;;;;;;;;;4865843;29;20052;-72
2022/08/16 01:21:19;;;;;;;9.48;5.35;;;;;;;;;;4865101;29;20065;-70
2022/08/16 01:24:05;;;;;;;7.78;5.20;;;;;;;;;;4865554;29;20045;-71
2022/08/16 01:27:21;;;;;;;8.23;4.47;;;;;;;;;;4860698;29;20064;-71
2022/08/16 01:30:27;;;;;;;9.45;4.35;;;;;;;;;;4866835;29;20061;-72
2022/08/16 01:33:01;;;;;;;8.00;4.30;;;;;;;;;;4852931;29;20053;-72
2022/08/16 01:36:01;;;;;;;7.47;4.30;;;;;;;;;;4872247;29;20062;-73
2022/08/16 01:38:43;;;;;;;8.10;3.85;;;;;;;;;;4870438;29;20064;-73
2022/08/16 01:41:29;;;;;;;7.72;4.07;;;;;;;;;;4869164;29;20058;-72
2022/08/16 01:44:03;;;;;;;12.73;4.38;;;;;;;;;;4855884;29;20072;-71
2022/08/16 01:46:38;;;;;;;9.77;4.45;;;;;;;;;;4854030;29;20417;-70
2022/08/16 01:49:19;;;;;;;6.57;3.90;;;;;;;;;;4856375;29;20076;-71
2022/08/16 01:51:56;;;;;;;8.55;4.32;;;;;;;;;;4871426;29;20050;-72
2022/08/16 01:55:00;;;;;;;11.23;4.18;;;;;;;;;;4837514;29;20069;-71
2022/08/16 01:57:30;;;;;;;7.30;4.45;;;;;;;;;;4874002;29;20513;-73
2022/08/16 02:00:09;;;;;;;6.68;4.00;;;;;;;;;;4857001;29;20057;-72
2022/08/16 02:02:47;;;;;;;5.53;3.67;;;;;;;;;;4857482;29;20049;-73
2022/08/16 02:05:21;;;;;;;11.25;4.22;;;;;;;;;;4856663;29;20061;-72
2022/08/16 02:07:51;;;;;;;11.55;4.55;;;;;;;;;;4856457;29;20501;-72
2022/08/16 02:10:23;;;;;;;7.63;4.20;;;;;;;;;;4855113;29;20049;-72
2022/08/16 02:12:55;;;;;;;7.07;3.92;;;;;;;;;;4871080;29;20057;-73
2022/08/16 02:15:32;;;;;;;6.88;3.67;;;;;;;;;;4855243;29;20053;-72
2022/08/16 02:18:04;;;;;;;4.50;3.25;;;;;;;;;;4855219;29;20049;-73
2022/08/16 02:20:46;;;;;;;5.47;3.10;;;;;;;;;;4855537;29;20076;-73
2022/08/16 02:23:17;;;;;;;6.15;3.00;;;;;;;;;;4855277;29;20057;-73
2022/08/16 02:25:48;;;;;;;5.45;3.25;;;;;;;;;;4854816;29;20522;-73
2022/08/16 02:28:25;;;;;;;5.55;3.05;;;;;;;;;;4856045;29;20053;-72
2022/08/16 02:30:58;;;;;;;5.22;2.90;;;;;;;;;;4855536;29;20072;-72
2022/08/16 02:33:28;;;;;;;10.20;3.17;;;;;;;;;;4854728;29;20061;-72
2022/08/16 02:36:26;;;;;;;6.50;3.38;;;;;;;;;;4854219;29;20923;-73
2022/08/16 02:39:19;;;;;;;4.13;2.50;;;;;;;;;;4854405;29;20056;-70
2022/08/16 02:41:53;;;;;;;4.45;2.67;;;;;;;;;;4854649;29;20060;-73
2022/08/16 02:44:24;;;;;;;4.80;2.83;;;;;;;;;;4839230;29;20068;-73
2022/08/16 02:46:57;;;;;;;7.00;2.95;;;;;;;;;;4869641;29;20065;-72
2022/08/16 02:49:30;;;;;;;4.38;2.88;;;;;;;;;;4854787;29;20062;-72
2022/08/16 02:52:21;;;;;;;5.45;3.05;;;;;;;;;;4854058;29;20068;-72
2022/08/16 02:55:04;;;;;;;3.97;2.28;;;;;;;;;;4854266;29;20050;-72
2022/08/16 02:57:36;;;;;;;3.33;2.53;;;;;;;;;;4854743;29;20418;-72
2022/08/16 03:00:21;;;;;;;6.70;3.10;;;;;;;;;;4855460;29;20552;-71
2022/08/16 03:03:05;;;;;;;4.18;2.40;;;;;;;;;;4854297;29;20065;-72
2022/08/16 03:05:38;;;;;;;4.57;2.65;;;;;;;;;;4854066;29;20058;-71
2022/08/16 03:08:10;;;;;;;4.10;2.47;;;;;;;;;;4856111;29;20072;-72
2022/08/16 03:11:01;;;;;;;5.10;2.55;;;;;;;;;;4854066;29;20069;-71
2022/08/16 03:13:31;;;;;;;4.35;2.65;;;;;;;;;;4853506;29;20057;-71
2022/08/16 03:16:11;;;;;;;5.72;3.25;;;;;;;;;;4869245;29;20062;-72
2022/08/16 03:19:02;;;;;;;5.90;3.30;;;;;;;;;;4854080;29;20072;-72
2022/08/16 03:21:34;;;;;;;3.35;2.50;;;;;;;;;;4854209;29;20052;-72
2022/08/16 03:24:08;;;;;;;5.60;3.33;;;;;;;;;;4853873;29;20053;-73
2022/08/16 03:27:01;;;;;;;5.95;2.53;;;;;;;;;;4868995;29;20083;-71
2022/08/16 03:29:33;;;;;;;8.30;2.88;;;;;;;;;;4853630;29;20050;-73
2022/08/16 03:32:05;;;;;;;6.53;2.90;;;;;;;;;;4853519;29;20417;-71
2022/08/16 03:34:35;;;;;;;4.65;2.85;;;;;;;;;;4855272;29;20041;-72
2022/08/16 03:37:05;;;;;;;3.15;2.33;;;;;;;;;;4853587;29;20054;-70
2022/08/16 03:39:38;;;;;;;6.53;2.70;;;;;;;;;;4854818;29;20061;-72
2022/08/16 03:42:11;;;;;;;10.98;2.67;;;;;;;;;;4853845;29;20061;-73
2022/08/16 03:44:50;;;;;;;5.25;2.50;;;;;;;;;;4854214;29;20057;-72
2022/08/16 03:47:35;;;;;;;5.00;2.58;;;;;;;;;;4868469;29;20068;-72
2022/08/16 03:50:06;;;;;;;4.55;2.78;;;;;;;;;;4853654;29;20058;-72
2022/08/16 03:52:55;;;;;;;7.28;2.45;;;;;;;;;;4868313;29;20522;-71
2022/08/16 03:55:34;;;;;;;3.47;2.45;;;;;;;;;;4853366;29;20417;-72
2022/08/16 03:58:15;;;;;;;4.70;2.40;;;;;;;;;;4853326;29;20065;-72
2022/08/16 04:00:45;;;;;;;4.47;2.72;;;;;;;;;;4853218;29;20061;-72
2022/08/16 04:03:30;;;;;;;4.82;2.70;;;;;;;;;;4853545;29;20414;-71
2022/08/16 04:06:05;;;;;;;4.88;2.67;;;;;;;;;;4855530;29;20065;-72
2022/08/16 04:08:40;;;;;;;5.07;2.50;;;;;;;;;;4868386;29;20073;-71
2022/08/16 04:11:14;;;;;;;3.15;2.58;;;;;;;;;;4853178;29;20057;-71
2022/08/16 04:13:48;;;;;;;5.07;2.67;;;;;;;;;;4853491;29;20053;-71
2022/08/16 04:16:42;;;;;;;4.80;2.30;;;;;;;;;;4855101;29;20084;-72
2022/08/16 04:19:39;;;;;;;4.72;2.47;;;;;;;;;;4841434;29;20077;-72
2022/08/16 04:22:19;;;;;;;3.30;2.30;;;;;;;;;;4853219;29;20112;-72
2022/08/16 04:25:00;;;;;;;3.63;2.70;;;;;;;;;;4868450;29;20058;-72
2022/08/16 04:27:40;;;;;;;5.07;2.35;;;;;;;;;;4853167;29;20065;-72
2022/08/16 04:30:26;;;;;;;5.15;2.58;;;;;;;;;;4853403;29;20414;-71
2022/08/16 04:33:05;;;;;;;3.13;2.35;;;;;;;;;;4854487;29;20057;-73
2022/08/16 04:35:39;;;;;;;9.20;2.58;;;;;;;;;;4852421;29;20065;-72
2022/08/16 04:38:09;;;;;;;4.90;2.55;;;;;;;;;;4868332;29;20057;-72
2022/08/16 04:40:52;;;;;;;6.88;2.50;;;;;;;;;;4852851;29;20064;-72
2022/08/16 04:43:22;;;;;;;5.80;2.67;;;;;;;;;;4854252;29;20391;-72
2022/08/16 04:45:52;;;;;;;3.65;2.65;;;;;;;;;;4852653;29;20054;-72
2022/08/16 04:48:33;;;;;;;5.95;2.47;;;;;;;;;;4852653;29;20529;-72
2022/08/16 04:51:10;;;;;;;3.70;2.22;;;;;;;;;;4854727;29;20057;-72
2022/08/16 04:53:44;;;;;;;7.03;2.60;;;;;;;;;;4852858;29;20053;-72
2022/08/16 04:56:17;;;;;;;7.10;3.20;;;;;;;;;;4852686;29;20425;-72
2022/08/16 04:58:50;;;;;;;7.05;2.45;;;;;;;;;;4854413;29;20080;-72
2022/08/16 05:01:26;;;;;;;5.70;2.95;;;;;;;;;;4856334;29;20421;-72
2022/08/16 05:04:17;;;;;;;4.45;2.92;;;;;;;;;;4856318;29;20069;-72
2022/08/16 05:06:50;;;;;;;10.02;2.80;;;;;;;;;;4855748;29;20065;-71
2022/08/16 05:09:28;;;;;;;4.15;2.63;;;;;;;;;;4855937;29;20080;-72
2022/08/16 05:12:05;;;;;;;7.65;2.65;;;;;;;;;;4856676;29;20061;-72
2022/08/16 05:14:40;;;;;;;3.42;2.55;;;;;;;;;;4856192;29;20061;-72
2022/08/16 05:17:32;;;;;;;5.10;2.80;;;;;;;;;;4856044;29;20061;-72
2022/08/16 05:20:09;;;;;;;4.25;2.95;;;;;;;;;;4856452;29;20054;-72
2022/08/16 05:23:00;;;;;;;8.60;3.03;;;;;;;;;;4857148;29;20045;-72
2022/08/16 05:25:30;;;;;;;5.55;3.38;;;;;;;;;;4855895;29;20054;-71
2022/08/16 05:28:17;;;;;;;5.63;3.47;;;;;;;;;;4855397;29;20065;-71
2022/08/16 05:30:53;;;;;;;6.60;3.70;;;;;;;;;;4855696;29;20658;-72
2022/08/16 05:33:27;;;;;;;6.25;3.45;;;;;;;;;;4855486;29;20069;-73
2022/08/16 05:35:58;;;;;;;5.25;3.45;;;;;;;;;;4856024;29;20049;-72
2022/08/16 05:38:42;;;;;;;8.00;3.60;;;;;;;;;;4856036;29;20041;-73
2022/08/16 05:41:15;;;;;;;6.03;3.72;;;;;;;;;;4855203;29;20636;-73
2022/08/16 05:43:46;;;;;;;8.60;3.53;;;;;;;;;;4855203;29;20061;-72
2022/08/16 05:46:24;;;;;;;8.18;3.92;;;;;;;;;;4855228;29;20053;-72
2022/08/16 05:49:07;;;;;;;5.53;3.47;;;;;;;;;;4855181;29;20058;-72
2022/08/16 05:51:46;;;;;;;9.27;3.80;;;;;;;;;;4855411;29;20538;-71
2022/08/16 05:54:18;;;;;;;9.18;3.80;;;;;;;;;;4870327;29;20053;-72
2022/08/16 05:56:57;;;;;;;7.40;3.88;;;;;;;;;;4855721;29;20049;-72
2022/08/16 05:59:29;;;;;;;8.02;4.43;;;;;;;;;;4855173;29;20061;-71
2022/08/16 06:01:59;;;;;;;7.57;4.13;;;;;;;;;;4855265;29;20060;-72
2022/08/16 06:04:36;;;;;;;11.25;4.38;;;;;;;;;;4855041;29;20054;-71
2022/08/16 06:07:17;;;;;;;7.32;4.53;;;;;;;;;;4854881;29;20049;-71
2022/08/16 06:10:05;;;;;;;9.90;4.88;;;;;;;;;;4854320;29;20069;-72
2022/08/16 06:12:38;;;;;;;6.93;4.95;;;;;;;;;;4855205;29;20060;-71
2022/08/16 06:15:15;;;;;;;8.98;5.30;;;;;;;;;;4869983;29;20793;-72
2022/08/16 06:17:46;;;;;;;7.65;5.30;;;;;;;;;;4854976;29;20056;-71
2022/08/16 06:20:26;;;;;;;9.98;4.97;;;;;;;;;;4855443;29;20053;-71
2022/08/16 06:23:14;;;;;;;13.35;5.10;;;;;;;;;;4855200;29;20061;-72
2022/08/16 06:26:01;;;;;;;8.82;5.28;;;;;;;;;;4869761;29;20803;-71
2022/08/16 06:28:42;;;;;;;11.77;5.68;;;;;;;;;;4854422;29;20100;-72
2022/08/16 06:31:19;;;;;;;11.07;6.57;;;;;;;;;;4854840;29;20053;-73
2022/08/16 06:33:54;;;;;;;9.77;6.65;;;;;;;;;;4854607;29;20060;-72
2022/08/16 06:36:28;;;;;;;8.88;6.68;;;;;;;;;;4854304;29;20486;-72
2022/08/16 06:39:25;;;;;;;9.02;6.70;;;;;;;;;;4854687;29;20053;-72
2022/08/16 06:42:09;;;;;;;11.75;6.28;;;;;;;;;;4856282;29;20049;-71
2022/08/16 06:45:11;;;;;;;12.38;8.00;;;;;;;;;;4844392;29;20053;-73
2022/08/16 06:47:50;;;;;;;10.93;6.68;;;;;;;;;;4869162;29;20058;-73
2022/08/16 06:50:27;;;;;;;11.77;8.23;;;;;;;;;;4854425;29;20437;-72
2022/08/16 06:53:04;;;;;;;9.80;7.38;;;;;;;;;;4839985;29;20057;-72
2022/08/16 06:55:47;;;;;;;12.65;7.65;;;;;;;;;;4855049;29;20057;-72
2022/08/16 06:58:23;;;;;;;11.63;8.10;;;;;;;;;;4854431;29;20049;-72
2022/08/16 07:01:05;;;;;;;;;;;;;;;;;;4854824;29;20433;-73
2022/08/16 07:03:45;;;;;;;12.82;7.88;;;;;;;;;;4869181;29;19924;-71
2022/08/16 07:06:31;;;;;;;14.52;8.35;;;;;;;;;;4854777;29;20061;-73
2022/08/16 07:09:10;;;;;;;16.10;9.00;;;;;;;;;;4869312;29;20520;-73
2022/08/16 07:11:44;;;;;;;17.55;9.77;;;;;;;;;;4854259;29;20049;-72
2022/08/16 07:14:32;;;;;;;15.02;8.13;;;;;;;;;;4869173;29;20069;-73
2022/08/16 07:17:06;;;;;;;10.73;6.53;;;;;;;;;;4853923;29;20100;-73
2022/08/16 07:19:49;;;;;;;7.63;4.47;;;;;;;;;;4853668;29;20137;-73
2022/08/16 07:22:55;;;;;;;8.45;3.58;;;;;;;;;;4853468;29;20057;-73
2022/08/16 07:25:35;;;;;;;4.85;3.00;;;;;;;;;;4854189;29;20533;-72
2022/08/16 07:28:12;;;;;;;7.45;2.33;;;;;;;;;;4853700;29;20061;-73
2022/08/16 07:30:55;;;;;;;9.73;2.60;;;;;;;;;;4869182;29;20053;-73
2022/08/16 07:33:36;;;;;;;5.18;1.92;;;;;;;;;;4853660;29;20543;-73
2022/08/16 07:36:26;;;;;;;6.25;1.67;;;;;;;;;;4868663;29;20524;-73
2022/08/16 07:38:59;;;;;;;7.68;1.52;;;;;;;;;;4853523;29;20053;-73
2022/08/16 07:41:35;;;;;;;5.88;2.20;;;;;;;;;;4852946;29;20053;-73
2022/08/16 07:44:08;;;;;;;11.07;2.08;;;;;;;;;;4853209;29;20061;-73
2022/08/16 07:46:47;;;;;;;8.20;1.90;;;;;;;;;;4853558;29;20053;-73
2022/08/16 07:49:25;;;;;;;10.95;2.00;;;;;;;;;;4853374;29;20064;-73
2022/08/16 07:52:06;;;;;;;8.20;1.75;;;;;;;;;;4854176;29;20063;-72
2022/08/16 07:54:50;;;;;;;9.60;1.48;;;;;;;;;;4853876;29;20594;-72
2022/08/16 07:57:23;;;;;;;9.98;1.88;;;;;;;;;;4853188;29;20513;-71
2022/08/16 07:59:54;;;;;;;5.22;1.55;;;;;;;;;;4853643;29;20058;-72
2022/08/16 08:02:27;;;;;;;4.03;1.58;;;;;;;;;;4853578;29;20632;-71
2022/08/16 08:04:58;;;;;;;9.02;1.63;;;;;;;;;;4853576;29;20064;-72
2022/08/16 08:07:31;;;;;;;8.45;1.50;;;;;;;;;;4854374;29;20096;-71
2022/08/16 08:10:06;;;;;;;9.88;1.60;;;;;;;;;;4853248;29;20061;-72
2022/08/16 08:12:40;;;;;;;12.90;1.85;;;;;;;;;;4852817;29;20064;-72
2022/08/16 08:15:14;;;;;;;5.82;1.75;;;;;;;;;;4853624;29;20072;-71
2022/08/16 08:17:55;;;;;;;8.75;2.03;;;;;;;;;;4853139;29;20053;-71
2022/08/16 08:20:45;;;;;;;9.25;1.90;;;;;;;;;;4853661;29;20544;-70
2022/08/16 08:23:35;;;;;;;5.93;1.80;;;;;;;;;;4868243;29;20069;-72
2022/08/16 08:26:10;;;;;;;8.73;2.05;;;;;;;;;;4854339;29;20398;-72
2022/08/16 08:28:46;;;;;;;4.75;1.42;;;;;;;;;;4854325;29;20502;-72
2022/08/16 08:31:18;;;;;;;6.15;2.28;;;;;;;;;;4852864;29;20525;-71
2022/08/16 08:33:49;;;;;;;7.95;1.65;;;;;;;;;;4869753;29;20057;-72
2022/08/16 08:36:29;;;;;;;6.50;1.75;;;;;;;;;;4857008;29;20061;-71
2022/08/16 08:39:14;;;;;;;10.75;1.77;;;;;;;;;;4871826;29;20062;-71
2022/08/16 08:41:48;;;;;;;6.05;1.83;;;;;;;;;;4856081;29;20061;-69
2022/08/16 08:44:21;;;;;;;9.00;2.17;;;;;;;;;;4856025;29;20073;-72
2022/08/16 08:47:07;;;;;;;7.50;1.63;;;;;;;;;;4856507;29;20065;-72
2022/08/16 08:49:40;;;;;;;11.00;1.65;;;;;;;;;;4857882;29;20053;-72
2022/08/16 08:52:25;;;;;;;7.35;1.70;;;;;;;;;;4856630;29;20099;-71
2022/08/16 08:55:09;;;;;;;7.18;1.88;;;;;;;;;;4871348;29;20433;-71
2022/08/16 08:57:46;;;;;;;4.82;1.55;;;;;;;;;;4856749;29;20058;-71
2022/08/16 09:00:43;;;;;;;8.30;1.75;;;;;;;;;;4849622;29;20057;-70
2022/08/16 09:03:21;;;;;;;11.45;2.03;;;;;;;;;;4856084;29;20057;-70
2022/08/16 09:05:56;;;;;;;12.32;2.10;;;;;;;;;;4871509;29;20049;-70
2022/08/16 09:08:31;;;;;;;12.65;2.55;;;;;;;;;;4855821;29;20556;-70
2022/08/16 09:11:06;;;;;;;13.02;2.20;;;;;;;;;;4856188;29;20438;-71
2022/08/16 09:13:43;;;;;;;11.63;2.35;;;;;;;;;;4856024;29;20049;-70
2022/08/16 09:16:19;;;;;;;6.75;1.98;;;;;;;;;;4856240;29;20057;-74
2022/08/16 09:19:09;;;;;;;9.80;2.03;;;;;;;;;;4856527;29;20064;-70
2022/08/16 09:21:39;;;;;;;12.00;1.95;;;;;;;;;;4857248;29;20050;-70
2022/08/16 09:24:11;;;;;;;18.10;1.70;;;;;;;;;;4856032;29;20425;-72
2022/08/16 09:27:01;;;;;;;9.88;1.83;;;;;;;;;;4856064;29;20064;-71
2022/08/16 09:29:33;;;;;;;18.08;2.63;;;;;;;;;;4855836;29;20053;-71
2022/08/16 09:32:17;;;;;;;13.77;2.10;;;;;;;;;;4855889;29;20061;-71
2022/08/16 09:35:00;;;;;;;9.30;1.73;;;;;;;;;;4856947;29;20045;-76
2022/08/16 09:37:32;;;;;;;13.13;2.13;;;;;;;;;;4856922;29;20501;-72
2022/08/16 09:40:08;;;;;;;10.88;1.85;;;;;;;;;;4856277;29;20072;-71
2022/08/16 09:42:59;;;;;;;12.68;2.20;;;;;;;;;;4856421;29;20050;-71
2022/08/16 09:45:31;;;;;;;14.95;2.10;;;;;;;;;;4856748;29;20057;-71
2022/08/16 09:48:06;;;;;;;8.43;2.05;;;;;;;;;;4856626;29;20041;-71
2022/08/16 09:50:38;;;;;;;15.95;1.98;;;;;;;;;;4856568;29;20045;-71
2022/08/16 09:53:14;;;;;;;11.32;2.60;;;;;;;;;;4856744;29;20060;-74
2022/08/16 09:55:48;;;;;;;9.35;2.35;;;;;;;;;;4856491;29;20055;-72
2022/08/16 09:58:23;;;;;;;9.90;1.50;;;;;;;;;;4856170;29;20041;-71
2022/08/16 10:01:13;;;;;;;9.55;1.80;;;;;;;;;;4856418;29;20532;-72
2022/08/16 10:03:43;;;;;;;21.58;3.05;;;;;;;;;;4856626;29;20061;-71
2022/08/16 10:06:32;;;;;;;13.95;2.45;;;;;;;;;;4855103;29;20056;-74
2022/08/16 10:09:08;;;;;;;11.07;2.60;;;;;;;;;;4855849;29;20506;-71
2022/08/16 10:14:46;;;;;;;7.95;1.73;;;;;;;;;;4856051;29;19924;-70
2022/08/16 10:17:16;;;;;;;;;;;;;;;;;;4856448;29;20064;-72
2022/08/16 10:19:45;;;;;;;16.58;2.10;;;;;;;;;;4855972;29;19928;-71
2022/08/16 10:22:18;;;;;;;12.20;2.22;;;;;;;;;;4856127;29;20057;-72
2022/08/16 10:24:51;;;;;;;11.45;1.88;;;;;;;;;;4856195;29;20056;-74
2022/08/16 10:27:28;;;;;;;12.65;2.60;;;;;;;;;;4856739;29;20061;-69
2022/08/16 10:30:18;;;;;;;17.83;3.60;;;;;;;;;;4861185;29;20581;-71
2022/08/16 10:32:54;;;;;;;18.90;2.60;;;;;;;;;;4862313;29;20046;-71
2022/08/16 10:35:24;;;;;;;14.60;3.30;;;;;;;;;;4861761;29;20068;-70
2022/08/16 10:38:01;;;;;;;9.35;2.10;;;;;;;;;;4859942;29;20037;-70
2022/08/16 10:40:34;;;;;;;12.48;2.17;;;;;;;;;;4856249;29;20080;-71
2022/08/16 10:43:04;;;;;;;11.10;2.20;;;;;;;;;;4854636;29;20053;-70
2022/08/16 10:45:47;;;;;;;13.57;3.35;;;;;;;;;;4855884;29;20050;-71
2022/08/16 10:48:29;;;;;;;11.65;2.13;;;;;;;;;;4855524;29;20053;-71
2022/08/16 10:51:00;;;;;;;10.00;2.22;;;;;;;;;;4855690;29;20057;-71
2022/08/16 10:53:35;;;;;;;13.27;2.10;;;;;;;;;;4856015;29;20064;-71
2022/08/16 10:56:10;;;;;;;11.13;3.08;;;;;;;;;;4855145;29;20053;-70
2022/08/16 10:59:00;;;;;;;8.30;2.33;;;;;;;;;;4855767;29;20057;-71
2022/08/16 11:01:50;;;;;;;15.35;2.50;;;;;;;;;;4855586;29;20533;-71
2022/08/16 11:04:41;;;;;;;13.35;2.53;;;;;;;;;;4855224;29;20064;-70
2022/08/16 11:07:31;;;;;;;11.95;2.58;;;;;;;;;;4854834;29;20050;-74
2022/08/16 11:10:26;;;;;;;9.57;2.35;;;;;;;;;;4855270;29;20417;-72
2022/08/16 11:13:19;;;;;;;11.60;2.80;;;;;;;;;;4855808;29;20659;-70
2022/08/16 11:16:10;;;;;;;7.90;2.08;;;;;;;;;;4855170;29;20054;-70
2022/08/16 11:19:00;;;;;;;11.43;1.88;;;;;;;;;;4855299;29;20037;-70
2022/08/16 11:21:42;;;;;;;10.48;2.33;;;;;;;;;;4855146;29;20055;-70
2022/08/16 11:24:32;;;;;;;9.38;2.15;;;;;;;;;;4854717;29;20072;-75
2022/08/16 11:27:15;;;;;;;11.10;1.98;;;;;;;;;;4854945;29;20050;-72
2022/08/16 11:29:56;;;;;;;13.10;2.42;;;;;;;;;;4854178;29;20053;-71
2022/08/16 11:32:28;;;;;;;13.43;2.63;;;;;;;;;;4854917;29;20065;-72
2022/08/16 11:35:05;;;;;;;16.45;2.47;;;;;;;;;;4854903;29;20049;-71
2022/08/16 11:37:47;;;;;;;9.55;2.20;;;;;;;;;;4854960;29;20079;-70
2022/08/16 11:40:51;;;;;;;9.73;2.42;;;;;;;;;;4855113;29;20060;-73
2022/08/16 11:43:23;;;;;;;8.25;2.22;;;;;;;;;;4854665;29;20072;-71
2022/08/16 11:45:56;;;;;;;10.43;1.98;;;;;;;;;;4854899;29;20620;-72
2022/08/16 11:48:47;;;;;;;7.25;2.17;;;;;;;;;;4854355;29;20053;-72
2022/08/16 11:51:17;;;;;;;6.57;1.92;;;;;;;;;;4854585;29;20072;-72
2022/08/16 11:53:46;;;;;;;;;;;;;;;;;;4855315;29;20056;-73
2022/08/16 11:56:16;;;;;;;7.47;2.00;;;;;;;;;;4854468;29;19935;-71
2022/08/16 11:59:06;;;;;;;10.27;2.10;;;;;;;;;;4854703;29;20056;-71
2022/08/16 12:01:36;;;;;;;10.07;2.17;;;;;;;;;;4855644;29;20058;-71
2022/08/16 12:04:23;;;;;;;12.90;2.03;;;;;;;;;;4854721;29;20053;-71
2022/08/16 12:06:53;;;;;;;8.40;1.90;;;;;;;;;;4854461;29;20525;-75
2022/08/16 12:09:23;;;;;;;12.52;2.58;;;;;;;;;;4857978;29;20045;-72
2022/08/16 12:11:58;;;;;;;10.63;2.10;;;;;;;;;;4858216;29;20502;-71
2022/08/16 12:14:32;;;;;;;9.80;2.00;;;;;;;;;;4856931;29;20057;-77
2022/08/16 12:17:06;;;;;;;12.93;1.77;;;;;;;;;;4858138;29;20631;-71
2022/08/16 12:19:37;;;;;;;8.50;1.90;;;;;;;;;;4858326;29;20049;-72
2022/08/16 12:22:07;;;;;;;12.68;2.00;;;;;;;;;;4857307;29;20061;-71
2022/08/16 12:24:48;;;;;;;13.60;1.70;;;;;;;;;;4858471;29;20049;-71
2022/08/16 12:27:23;;;;;;;7.75;1.70;;;;;;;;;;4856717;29;20046;-70
2022/08/16 12:29:53;;;;;;;8.30;1.70;;;;;;;;;;4857652;29;20413;-71
2022/08/16 12:32:27;;;;;;;9.73;2.63;;;;;;;;;;4857975;29;20410;-71
2022/08/16 12:35:20;;;;;;;11.82;2.05;;;;;;;;;;4857761;29;20045;-71
2022/08/16 12:37:50;;;;;;;10.10;1.92;;;;;;;;;;4857972;29;20053;-72
2022/08/16 12:40:27;;;;;;;6.28;2.10;;;;;;;;;;4857710;29;20525;-71
2022/08/16 12:43:00;;;;;;;10.25;1.88;;;;;;;;;;4856971;29;20054;-71
2022/08/16 12:45:33;;;;;;;11.57;1.65;;;;;;;;;;4856968;29;20061;-71
2022/08/16 12:51:04;;;;;;;7.63;1.88;;;;;;;;;;4857445;29;20045;-71
2022/08/16 12:53:50;;;;;;;7.47;1.85;;;;;;;;;;4857303;29;20057;-72
2022/08/16 12:56:22;;;;;;;7.38;1.58;;;;;;;;;;4857681;29;20045;-70
2022/08/16 12:58:54;;;;;;;7.28;1.77;;;;;;;;;;4856299;29;20127;-71
2022/08/16 13:01:28;;;;;;;8.70;1.60;;;;;;;;;;4856196;29;20557;-71
2022/08/16 13:04:00;;;;;;;7.90;1.85;;;;;;;;;;4856968;29;20076;-71
2022/08/16 13:06:49;;;;;;;6.63;1.63;;;;;;;;;;4857298;29;20101;-71
2022/08/16 13:09:24;;;;;;;11.90;1.90;;;;;;;;;;4858274;29;20041;-69
2022/08/16 13:12:17;;;;;;;8.98;1.85;;;;;;;;;;4857551;29;20062;-70
2022/08/16 13:14:51;;;;;;;9.18;2.10;;;;;;;;;;4857182;29;20057;-70
2022/08/16 13:17:24;;;;;;;13.63;2.53;;;;;;;;;;4856867;29;20052;-71
2022/08/16 13:19:59;;;;;;;12.70;1.98;;;;;;;;;;4856299;29;20520;-71
2022/08/16 13:22:43;;;;;;;10.38;2.03;;;;;;;;;;4857524;29;20528;-71
2022/08/16 13:25:17;;;;;;;6.57;1.48;;;;;;;;;;4856484;29;20069;-70
2022/08/16 13:27:51;;;;;;;11.55;2.03;;;;;;;;;;4857234;29;20053;-71
2022/08/16 13:30:41;;;;;;;8.95;2.20;;;;;;;;;;4856803;29;20370;-71
2022/08/16 13:33:15;;;;;;;15.00;2.22;;;;;;;;;;4857284;29;20052;-70
2022/08/16 13:35:58;;;;;;;10.50;2.17;;;;;;;;;;4856740;29;20076;-69
2022/08/16 13:38:30;;;;;;;12.43;2.30;;;;;;;;;;4855727;29;20056;-70
2022/08/16 13:41:09;;;;;;;10.18;2.50;;;;;;;;;;4856604;29;20052;-71
2022/08/16 13:43:40;;;;;;;11.25;2.83;;;;;;;;;;4856498;29;20049;-71
2022/08/16 13:46:10;;;;;;;7.45;2.08;;;;;;;;;;4856329;29;20069;-68
2022/08/16 13:48:41;;;;;;;8.77;1.92;;;;;;;;;;4857045;29;20061;-71
2022/08/16 13:51:18;;;;;;;11.55;2.08;;;;;;;;;;4857482;29;20045;-71
2022/08/16 13:53:54;;;;;;;10.68;2.35;;;;;;;;;;4857036;29;20049;-72
2022/08/16 13:56:33;;;;;;;12.07;2.60;;;;;;;;;;4857405;29;20545;-71
2022/08/16 13:59:12;;;;;;;8.85;1.65;;;;;;;;;;4857544;29;20060;-70
2022/08/16 14:01:54;;;;;;;7.15;1.85;;;;;;;;;;4856909;29;20049;-71
2022/08/16 14:04:32;;;;;;;14.65;2.50;;;;;;;;;;4856230;29;20045;-70
2022/08/16 14:07:07;;;;;;;13.23;2.35;;;;;;;;;;4856270;29;20064;-69
2022/08/16 14:09:38;;;;;;;10.00;2.00;;;;;;;;;;4856246;29;20049;-74
2022/08/16 14:12:24;;;;;;;17.00;2.30;;;;;;;;;;4856415;29;20064;-71
2022/08/16 14:14:55;;;;;;;9.85;2.05;;;;;;;;;;4856433;29;20072;-71
2022/08/16 14:17:26;;;;;;;8.35;1.73;;;;;;;;;;4855929;29;20544;-71
2022/08/16 14:19:58;;;;;;;7.43;1.85;;;;;;;;;;4856460;29;20061;-71
2022/08/16 14:22:32;;;;;;;10.82;2.22;;;;;;;;;;4856574;29;20057;-71
2022/08/16 14:25:17;;;;;;;8.88;1.63;;;;;;;;;;4854633;29;20057;-73
2022/08/16 14:27:50;;;;;;;14.48;3.22;;;;;;;;;;4855680;29;20060;-72
2022/08/16 14:30:23;;;;;;;11.40;2.70;;;;;;;;;;4855679;29;20092;-72
2022/08/16 14:32:54;;;;;;;11.90;2.00;;;;;;;;;;4855880;29;20056;-75
2022/08/16 14:35:28;;;;;;;9.68;1.80;;;;;;;;;;4855905;29;20053;-71
2022/08/16 14:38:20;;;;;;;12.90;2.38;;;;;;;;;;4855756;29;20064;-71
2022/08/16 14:40:52;;;;;;;11.05;1.95;;;;;;;;;;4856298;29;20057;-71
2022/08/16 14:43:24;;;;;;;9.60;1.90;;;;;;;;;;4855812;29;20046;-72
2022/08/16 14:45:58;;;;;;;9.50;1.75;;;;;;;;;;4855782;29;20119;-77
2022/08/16 14:48:29;;;;;;;7.25;1.75;;;;;;;;;;4855769;29;20508;-72
2022/08/16 14:51:01;;;;;;;7.80;1.67;;;;;;;;;;4855154;29;20049;-74
2022/08/16 14:53:35;;;;;;;11.20;2.05;;;;;;;;;;4854050;29;20046;-71
2022/08/16 14:56:05;;;;;;;6.57;1.80;;;;;;;;;;4854813;29;20046;-71
2022/08/16 14:58:45;;;;;;;12.68;2.40;;;;;;;;;;4855385;29;20061;-71
2022/08/16 15:01:16;;;;;;;11.32;1.63;;;;;;;;;;4855706;29;20056;-72
2022/08/16 15:03:47;;;;;;;7.40;1.85;;;;;;;;;;4855472;29;20053;-70
2022/08/16 15:06:22;;;;;;;10.45;2.25;;;;;;;;;;4855546;29;20053;-70
2022/08/16 15:08:52;;;;;;;13.77;2.00;;;;;;;;;;4854998;29;20058;-72
2022/08/16 15:11:22;;;;;;;9.00;2.08;;;;;;;;;;4854835;29;20385;-77
2022/08/16 15:13:53;;;;;;;5.63;1.60;;;;;;;;;;4855427;29;20053;-73
2022/08/16 15:16:24;;;;;;;6.97;1.67;;;;;;;;;;4855499;29;20052;-71
2022/08/16 15:19:00;;;;;;;10.48;2.03;;;;;;;;;;4855581;29;20053;-72
2022/08/16 15:21:30;;;;;;;4.25;1.13;;;;;;;;;;4854836;29;20057;-72
2022/08/16 15:24:02;;;;;;;5.65;1.40;;;;;;;;;;4855323;29;20049;-71
2022/08/16 15:26:33;;;;;;;6.18;1.40;;;;;;;;;;4854720;29;20057;-75
2022/08/16 15:29:14;;;;;;;3.30;1.40;;;;;;;;;;4855011;29;20053;-72
2022/08/16 15:31:45;;;;;;;6.45;1.15;;;;;;;;;;4854941;29;20054;-72
2022/08/16 15:34:16;;;;;;;6.43;1.48;;;;;;;;;;4854736;29;20156;-73
2022/08/16 15:36:53;;;;;;;7.25;1.42;;;;;;;;;;4854748;29;20108;-70
2022/08/16 15:39:23;;;;;;;8.35;1.83;;;;;;;;;;4854789;29;20049;-71
2022/08/16 15:42:09;;;;;;;8.23;1.70;;;;;;;;;;4854403;29;20084;-72
2022/08/16 15:44:55;;;;;;;6.07;1.30;;;;;;;;;;4854360;29;20064;-70
2022/08/16 15:47:27;;;;;;;6.45;1.60;;;;;;;;;;4855111;29;20061;-72
2022/08/16 15:49:56;;;;;;;3.50;1.10;;;;;;;;;;4854842;29;20065;-72
2022/08/16 15:52:34;;;;;;;6.78;1.30;;;;;;;;;;4854939;29;20076;-72